Time;durP1;ratioP1;P1;durP2;ratioP2;P2;SDS_P1;SDS_P2;PMS_P1;PMS_P2;Temp;Humidity;BMP_temperature;BMP_pressure;BME280_temperature;BME280_humidity;BME280_pressure;Samples;Min_cycle;Max_cycle;Signal;HPM_P1;HPM_P2
2021/12/01 00:00:55;;;;;;;;;;;10.90;99.90;;;;;;5095129;28;20369;-79
2021/12/01 00:03:21;;;;;;;;;;;10.90;99.90;;;;;;5095066;28;19915;-78
2021/12/01 00:05:47;;;;;;;;;;;11.00;99.90;;;;;;5076874;28;20011;-79
2021/12/01 00:08:13;;;;;;;;;;;10.90;99.90;;;;;;5076778;28;20001;-78
2021/12/01 00:10:39;;;;;;;;;;;10.80;99.90;;;;;;5094700;28;19920;-78
2021/12/01 00:13:07;;;;;;;;;;;10.80;99.90;;;;;;5094837;28;19912;-78
2021/12/01 00:15:33;;;;;;;;;;;10.90;99.90;;;;;;5094854;28;19916;-78
2021/12/01 00:17:58;;;;;;;;;;;10.90;99.90;;;;;;5094809;28;19908;-78
2021/12/01 00:20:24;;;;;;;;;;;10.90;99.90;;;;;;5095011;28;19915;-79
2021/12/01 00:22:50;;;;;;;;;;;11.00;99.90;;;;;;5076550;28;20422;-78
2021/12/01 00:25:17;;;;;;;;;;;10.90;99.90;;;;;;5094708;28;19915;-78
2021/12/01 00:27:44;;;;;;;;;;;11.00;99.90;;;;;;5094635;28;19908;-78
2021/12/01 00:30:10;;;;;;;;;;;11.00;99.90;;;;;;5094765;28;19930;-79
2021/12/01 00:32:36;;;;;;;;;;;11.00;99.90;;;;;;5094547;28;20416;-78
2021/12/01 00:35:03;;;;;;;;;;;11.00;99.90;;;;;;5094616;28;19915;-78
2021/12/01 00:37:29;;;;;;;;;;;11.10;99.90;;;;;;5094474;28;20423;-78
2021/12/01 00:39:55;;;;;;;;;;;11.00;99.90;;;;;;5094472;28;19997;-78
2021/12/01 00:42:20;;;;;;;;;;;11.00;99.90;;;;;;5094633;28;19908;-78
2021/12/01 00:44:53;;;;;;;;;;;10.90;99.90;;;;;;5094485;28;19915;-78
2021/12/01 00:47:19;;;;;;;;;;;10.90;99.90;;;;;;5094619;28;19908;-78
2021/12/01 00:49:44;;;;;;;;;;;11.00;99.90;;;;;;5094400;28;20249;-78
2021/12/01 00:52:10;;;;;;;;;;;11.10;99.90;;;;;;5094367;28;19912;-77
2021/12/01 00:54:36;;;;;;;;;;;11.00;99.90;;;;;;5076101;28;20284;-78
2021/12/01 00:57:02;;;;;;;;;;;11.10;99.90;;;;;;5094106;28;19938;-78
2021/12/01 00:59:27;;;;;;;;;;;11.10;99.90;;;;;;5094420;28;19915;-78
2021/12/01 01:01:53;;;;;;;;;;;11.00;99.90;;;;;;5094126;28;19908;-77
2021/12/01 01:04:19;;;;;;;;;;;11.00;99.90;;;;;;5094128;28;20049;-78
2021/12/01 01:06:44;;;;;;;;;;;11.00;99.90;;;;;;5093997;28;19915;-77
2021/12/01 01:09:10;;;;;;;;;;;11.00;99.90;;;;;;5075790;28;19972;-77
2021/12/01 01:19:58;;;;;;;;;;;10.60;99.90;;;;;;5093664;28;19931;-82
2021/12/01 01:22:24;;;;;;;;;;;10.60;99.90;;;;;;5075665;28;20372;-81
2021/12/01 01:24:49;;;;;;;;;;;10.50;99.90;;;;;;5093822;28;19915;-82
2021/12/01 01:27:15;;;;;;;;;;;10.50;99.90;;;;;;5093757;28;20327;-82
2021/12/01 01:29:41;;;;;;;;;;;10.50;99.90;;;;;;5093707;28;19908;-82
2021/12/01 01:32:06;;;;;;;;;;;10.50;99.90;;;;;;5093610;28;19939;-83
2021/12/01 01:34:33;;;;;;;;;;;10.60;99.90;;;;;;5093715;28;19909;-83
2021/12/01 01:36:59;;;;;;;;;;;10.60;99.90;;;;;;5093692;28;19958;-83
2021/12/01 01:39:24;;;;;;;;;;;10.50;99.90;;;;;;5075512;28;19912;-84
2021/12/01 01:41:52;;;;;;;;;;;10.60;99.90;;;;;;5093792;28;19948;-84
2021/12/01 01:44:17;;;;;;;;;;;10.60;99.90;;;;;;5075465;28;19926;-83
2021/12/01 01:46:43;;;;;;;;;;;10.60;99.90;;;;;;5075442;28;19908;-84
2021/12/01 01:51:41;;;;;;;;;;;10.70;99.90;;;;;;5093778;28;20007;-84
2021/12/01 01:54:06;;;;;;;;;;;10.70;99.90;;;;;;5075378;28;19939;-83
2021/12/01 01:56:32;;;;;;;;;;;10.70;99.90;;;;;;5093496;28;19908;-83
2021/12/01 01:58:58;;;;;;;;;;;10.80;99.90;;;;;;5093432;28;19908;-83
2021/12/01 02:04:09;;;;;;;;;;;10.70;99.90;;;;;;5093313;28;19957;-84
2021/12/01 02:06:35;;;;;;;;;;;10.80;99.90;;;;;;5075251;28;20299;-85
2021/12/01 02:09:01;;;;;;;;;;;10.80;99.90;;;;;;5093373;28;20018;-84
2021/12/01 02:11:27;;;;;;;;;;;10.80;99.90;;;;;;5092961;28;19962;-84
2021/12/01 02:13:53;;;;;;;;;;;10.90;99.90;;;;;;5093292;28;19915;-83
2021/12/01 02:16:19;;;;;;;;;;;10.90;99.90;;;;;;5093124;28;19912;-83
2021/12/01 02:18:45;;;;;;;;;;;10.90;99.90;;;;;;5075136;28;19912;-84
2021/12/01 02:21:12;;;;;;;;;;;10.90;99.90;;;;;;5093225;28;19908;-82
2021/12/01 02:23:39;;;;;;;;;;;10.90;99.90;;;;;;5093302;28;19915;-83
2021/12/01 02:26:05;;;;;;;;;;;10.90;99.90;;;;;;5093516;28;20377;-83
2021/12/01 02:28:31;;;;;;;;;;;11.00;99.90;;;;;;5093154;28;19914;-84
2021/12/01 02:30:58;;;;;;;;;;;11.00;99.90;;;;;;5094035;28;19916;-82
2021/12/01 02:33:24;;;;;;;;;;;10.90;99.90;;;;;;5078606;28;19946;-83
2021/12/01 02:35:49;;;;;;;;;;;11.00;99.90;;;;;;5096806;28;20280;-83
2021/12/01 02:38:16;;;;;;;;;;;11.00;99.90;;;;;;5096835;28;19912;-83
2021/12/01 02:40:41;;;;;;;;;;;11.10;99.90;;;;;;5097139;28;20011;-82
2021/12/01 02:43:07;;;;;;;;;;;11.10;99.90;;;;;;5096700;28;20451;-83
2021/12/01 02:45:33;;;;;;;;;;;11.10;99.90;;;;;;5096736;28;19912;-81
2021/12/01 02:47:58;;;;;;;;;;;11.10;99.90;;;;;;5096695;28;19908;-82
2021/12/01 02:50:24;;;;;;;;;;;11.10;99.90;;;;;;5096542;28;20029;-83
2021/12/01 02:52:49;;;;;;;;;;;11.10;99.90;;;;;;5096652;28;20275;-82
2021/12/01 02:55:18;;;;;;;;;;;11.20;99.90;;;;;;5096825;28;19908;-82
2021/12/01 02:57:45;;;;;;;;;;;11.10;99.90;;;;;;5096548;28;19997;-82
2021/12/01 03:00:11;;;;;;;;;;;11.20;99.90;;;;;;5096392;28;19908;-82
2021/12/01 03:02:38;;;;;;;;;;;11.20;99.90;;;;;;5096313;28;20279;-81
2021/12/01 03:05:04;;;;;;;;;;;11.20;99.90;;;;;;5096312;28;19946;-81
2021/12/01 03:07:31;;;;;;;;;;;11.30;99.90;;;;;;5096571;28;19908;-81
2021/12/01 03:09:57;;;;;;;;;;;11.30;99.90;;;;;;5095956;28;19916;-81
2021/12/01 03:12:26;;;;;;;;;;;11.30;99.90;;;;;;5096117;28;19965;-81
2021/12/01 03:14:51;;;;;;;;;;;11.40;99.90;;;;;;5077927;28;19908;-80
2021/12/01 03:17:17;;;;;;;;;;;11.40;99.90;;;;;;5096024;28;19957;-81
2021/12/01 03:19:42;;;;;;;;;;;11.40;99.90;;;;;;5077826;28;19990;-81
2021/12/01 03:22:12;;;;;;;;;;;11.40;99.90;;;;;;5077809;28;20288;-82
2021/12/01 03:24:37;;;;;;;;;;;11.40;99.90;;;;;;5095875;28;19912;-82
2021/12/01 03:27:03;;;;;;;;;;;11.40;99.90;;;;;;5095838;28;19908;-82
2021/12/01 03:29:28;;;;;;;;;;;11.40;99.90;;;;;;5095789;28;19909;-82
2021/12/01 03:31:54;;;;;;;;;;;11.40;99.90;;;;;;5096086;28;19913;-82
2021/12/01 03:34:21;;;;;;;;;;;11.50;99.90;;;;;;5096028;28;19908;-81
2021/12/01 03:36:47;;;;;;;;;;;11.60;99.90;;;;;;5095621;28;20369;-81
2021/12/01 03:39:12;;;;;;;;;;;11.60;99.90;;;;;;5095518;28;19908;-81
2021/12/01 03:41:38;;;;;;;;;;;11.60;99.90;;;;;;5095348;28;19915;-81
2021/12/01 03:44:04;;;;;;;;;;;11.60;99.90;;;;;;5095785;28;20284;-81
2021/12/01 03:46:29;;;;;;;;;;;11.60;99.90;;;;;;5095477;28;19908;-81
2021/12/01 03:48:55;;;;;;;;;;;11.60;99.90;;;;;;5077233;28;19908;-80
2021/12/01 03:51:21;;;;;;;;;;;11.60;99.90;;;;;;5095686;28;19908;-80
2021/12/01 03:53:47;;;;;;;;;;;11.60;99.90;;;;;;5095270;28;19912;-81
2021/12/01 03:56:13;;;;;;;;;;;11.60;99.90;;;;;;5095471;28;19915;-80
2021/12/01 03:58:38;;;;;;;;;;;11.60;99.90;;;;;;5095235;28;19917;-80
2021/12/01 04:01:04;;;;;;;;;;;11.60;99.90;;;;;;5095197;28;19908;-80
2021/12/01 04:03:29;;;;;;;;;;;11.60;99.90;;;;;;5095110;28;20008;-80
2021/12/01 04:05:55;;;;;;;;;;;11.60;99.90;;;;;;5095213;28;19908;-80
2021/12/01 04:08:20;;;;;;;;;;;11.60;99.90;;;;;;5095589;28;19915;-80
2021/12/01 04:10:46;;;;;;;;;;;11.60;99.90;;;;;;5094774;28;19998;-80
2021/12/01 04:13:11;;;;;;;;;;;11.50;99.90;;;;;;5095049;28;20329;-80
2021/12/01 04:15:37;;;;;;;;;;;11.50;99.90;;;;;;5094874;28;19950;-80
2021/12/01 04:18:03;;;;;;;;;;;11.50;99.90;;;;;;5094906;28;19999;-80
2021/12/01 04:20:28;;;;;;;;;;;11.50;99.90;;;;;;5094746;28;20395;-80
2021/12/01 04:22:54;;;;;;;;;;;11.50;99.90;;;;;;5095110;28;19954;-80
2021/12/01 04:25:20;;;;;;;;;;;11.50;99.90;;;;;;5094849;28;19952;-79
2021/12/01 04:27:45;;;;;;;;;;;11.50;99.90;;;;;;5094845;28;19908;-79
2021/12/01 04:30:13;;;;;;;;;;;11.50;99.90;;;;;;5094642;28;20339;-80
2021/12/01 04:32:38;;;;;;;;;;;11.50;99.90;;;;;;5076294;28;19958;-79
2021/12/01 04:35:05;;;;;;;;;;;11.50;99.90;;;;;;5094824;28;20342;-79
2021/12/01 04:37:30;;;;;;;;;;;11.50;99.90;;;;;;5094519;28;19908;-79
2021/12/01 04:39:56;;;;;;;;;;;11.40;99.90;;;;;;5094510;28;19914;-79
2021/12/01 04:42:22;;;;;;;;;;;11.30;99.90;;;;;;5094450;28;19908;-79
2021/12/01 04:44:47;;;;;;;;;;;11.30;99.90;;;;;;5076205;28;20430;-79
2021/12/01 04:47:15;;;;;;;;;;;11.20;99.90;;;;;;5094260;28;20004;-79
2021/12/01 04:49:41;;;;;;;;;;;11.10;99.90;;;;;;5094297;28;19912;-79
2021/12/01 04:52:10;;;;;;;;;;;11.10;99.90;;;;;;5076017;28;19920;-79
2021/12/01 04:54:36;;;;;;;;;;;11.00;99.90;;;;;;5075417;28;19909;-79
2021/12/01 04:57:02;;;;;;;;;;;10.90;99.90;;;;;;5094221;28;19933;-79
2021/12/01 04:59:28;;;;;;;;;;;10.80;99.90;;;;;;5094149;28;19912;-79
2021/12/01 05:01:55;;;;;;;;;;;10.70;99.90;;;;;;5094195;28;19915;-79
2021/12/01 05:04:23;;;;;;;;;;;10.60;99.90;;;;;;5094028;28;19995;-79
2021/12/01 05:06:49;;;;;;;;;;;10.60;99.90;;;;;;5093985;28;20003;-79
2021/12/01 05:09:15;;;;;;;;;;;10.40;99.90;;;;;;5094156;28;19908;-79
2021/12/01 05:11:41;;;;;;;;;;;10.40;99.90;;;;;;5093253;28;20371;-79
2021/12/01 05:14:10;;;;;;;;;;;10.40;99.90;;;;;;5113381;28;21315;-79
2021/12/01 05:16:37;;;;;;;;;;;10.30;99.90;;;;;;5114223;28;19908;-79
2021/12/01 05:19:05;;;;;;;;;;;10.30;99.90;;;;;;5095971;28;19953;-79
2021/12/01 05:21:31;;;;;;;;;;;10.30;99.90;;;;;;5114222;28;20052;-79
2021/12/01 05:23:56;;;;;;;;;;;10.20;99.90;;;;;;5114404;28;19912;-79
2021/12/01 05:26:22;;;;;;;;;;;10.10;99.90;;;;;;5114170;28;19908;-79
2021/12/01 05:28:47;;;;;;;;;;;10.10;99.90;;;;;;5114104;28;19914;-78
2021/12/01 05:31:13;;;;;;;;;;;10.00;99.90;;;;;;5114706;28;20027;-79
2021/12/01 05:33:40;;;;;;;;;;;10.00;99.90;;;;;;5114003;28;19911;-79
2021/12/01 05:36:06;;;;;;;;;;;10.00;99.90;;;;;;5114089;28;19908;-79
2021/12/01 05:38:32;;;;;;;;;;;10.00;99.90;;;;;;5114030;28;19908;-78
2021/12/01 05:40:57;;;;;;;;;;;9.90;99.90;;;;;;5113982;28;19972;-79
2021/12/01 05:43:23;;;;;;;;;;;9.90;99.90;;;;;;5114043;28;19907;-79
2021/12/01 05:45:48;;;;;;;;;;;9.90;99.90;;;;;;5114096;28;19907;-78
2021/12/01 05:48:15;;;;;;;;;;;9.90;99.90;;;;;;5114011;28;19920;-78
2021/12/01 05:50:40;;;;;;;;;;;9.90;99.90;;;;;;5113929;28;19914;-79
2021/12/01 05:53:06;;;;;;;;;;;9.90;99.90;;;;;;5095529;28;20364;-79
2021/12/01 05:55:32;;;;;;;;;;;9.90;99.90;;;;;;5095719;28;19957;-79
2021/12/01 05:57:57;;;;;;;;;;;9.90;99.90;;;;;;5113804;28;20387;-78
2021/12/01 06:00:23;;;;;;;;;;;9.90;99.90;;;;;;5113829;28;19907;-78
2021/12/01 06:02:51;;;;;;;;;;;10.00;99.90;;;;;;5113870;28;19908;-78
2021/12/01 06:05:17;;;;;;;;;;;10.00;99.90;;;;;;5115262;28;19907;-79
2021/12/01 06:07:43;;;;;;;;;;;10.00;99.90;;;;;;5117996;28;19942;-78
2021/12/01 06:10:09;;;;;;;;;;;10.00;99.90;;;;;;5112356;28;19920;-78
2021/12/01 06:12:35;;;;;;;;;;;10.10;99.90;;;;;;5097450;28;19941;-79
2021/12/01 06:15:01;;;;;;;;;;;10.00;99.90;;;;;;5097322;28;19917;-79
2021/12/01 06:17:27;;;;;;;;;;;10.00;99.90;;;;;;5097170;28;19908;-78
2021/12/01 06:19:53;;;;;;;;;;;10.00;99.90;;;;;;5097131;28;19920;-79
2021/12/01 06:22:18;;;;;;;;;;;9.90;99.90;;;;;;5078864;28;19908;-79
2021/12/01 06:24:44;;;;;;;;;;;9.80;99.90;;;;;;5097100;28;19909;-79
2021/12/01 06:27:11;;;;;;;;;;;9.70;99.90;;;;;;5096988;28;19908;-78
2021/12/01 06:29:37;;;;;;;;;;;9.60;99.90;;;;;;5096904;28;19948;-79
2021/12/01 06:32:03;;;;;;;;;;;9.60;99.90;;;;;;5097127;28;19958;-79
2021/12/01 06:34:28;;;;;;;;;;;9.60;99.90;;;;;;5096872;28;20372;-79
2021/12/01 06:36:54;;;;;;;;;;;9.60;99.90;;;;;;5096870;28;19908;-78
2021/12/01 06:39:20;;;;;;;;;;;9.60;99.90;;;;;;5096818;28;19969;-79
2021/12/01 06:41:45;;;;;;;;;;;9.60;99.90;;;;;;5096939;28;19915;-78
2021/12/01 06:44:11;;;;;;;;;;;9.70;99.90;;;;;;5096691;28;19908;-78
2021/12/01 06:46:37;;;;;;;;;;;9.60;99.90;;;;;;5096910;28;19915;-79
2021/12/01 06:49:02;;;;;;;;;;;9.60;99.90;;;;;;5096626;28;19915;-79
2021/12/01 06:51:28;;;;;;;;;;;9.60;99.90;;;;;;5096537;28;19944;-79
2021/12/01 06:53:54;;;;;;;;;;;9.60;99.90;;;;;;5096762;28;19954;-78
2021/12/01 06:56:19;;;;;;;;;;;9.60;99.90;;;;;;5096793;28;19916;-78
2021/12/01 06:58:45;;;;;;;;;;;9.50;99.90;;;;;;5096499;28;19915;-79
2021/12/01 07:01:12;;;;;;;;;;;9.50;99.90;;;;;;5078145;28;19912;-79
2021/12/01 07:03:38;;;;;;;;;;;9.50;99.90;;;;;;5078089;28;19935;-78
2021/12/01 07:06:03;;;;;;;;;;;9.50;99.90;;;;;;5096234;28;20001;-79
2021/12/01 07:08:29;;;;;;;;;;;9.50;99.90;;;;;;5078089;28;19912;-79
2021/12/01 07:10:55;;;;;;;;;;;9.60;99.90;;;;;;5096077;28;19920;-78
2021/12/01 07:13:20;;;;;;;;;;;9.50;99.90;;;;;;5096001;28;19912;-79
2021/12/01 07:15:46;;;;;;;;;;;9.50;99.90;;;;;;5096098;28;20284;-78
2021/12/01 07:18:11;;;;;;;;;;;9.50;99.90;;;;;;5095327;28;20381;-78
2021/12/01 07:20:37;;;;;;;;;;;9.50;99.90;;;;;;5095993;28;19916;-78
2021/12/01 07:23:03;;;;;;;;;;;9.50;99.90;;;;;;5095975;28;19956;-78
2021/12/01 07:25:29;;;;;;;;;;;9.40;99.90;;;;;;5096131;28;20379;-78
2021/12/01 07:27:54;;;;;;;;;;;9.50;99.90;;;;;;5095819;28;19915;-79
2021/12/01 07:30:20;;;;;;;;;;;9.40;99.90;;;;;;5077672;28;19909;-78
2021/12/01 07:32:46;;;;;;;;;;;9.50;99.90;;;;;;5095675;28;19912;-78
2021/12/01 07:35:11;;;;;;;;;;;9.60;99.90;;;;;;5077543;28;19931;-78
2021/12/01 07:37:37;;;;;;;;;;;9.50;99.90;;;;;;5095810;28;19950;-78
2021/12/01 07:40:03;;;;;;;;;;;9.50;99.90;;;;;;5077417;28;20287;-78
2021/12/01 07:42:29;;;;;;;;;;;9.50;99.90;;;;;;5095744;28;19910;-79
2021/12/01 07:44:54;;;;;;;;;;;9.50;99.90;;;;;;5095440;28;19985;-79
2021/12/01 07:47:20;;;;;;;;;;;9.50;99.90;;;;;;5095410;28;19908;-78
2021/12/01 07:49:45;;;;;;;;;;;9.50;99.90;;;;;;5095802;28;19908;-78
2021/12/01 07:52:11;;;;;;;;;;;9.50;99.90;;;;;;5095617;28;19916;-78
2021/12/01 07:54:39;;;;;;;;;;;9.50;99.90;;;;;;5077131;28;19978;-79
2021/12/01 07:57:04;;;;;;;;;;;9.50;99.90;;;;;;5095219;28;19956;-78
2021/12/01 07:59:30;;;;;;;;;;;9.50;99.90;;;;;;5095450;28;19915;-79
2021/12/01 08:01:55;;;;;;;;;;;9.50;99.90;;;;;;5095172;28;19914;-78
2021/12/01 08:04:21;;;;;;;;;;;9.70;99.90;;;;;;5095200;28;19998;-78
2021/12/01 08:06:47;;;;;;;;;;;9.70;99.90;;;;;;5095102;28;19912;-78
2021/12/01 08:09:12;;;;;;;;;;;9.80;99.90;;;;;;5095213;28;20007;-78
2021/12/01 08:11:38;;;;;;;;;;;10.00;99.90;;;;;;5094706;28;19927;-78
2021/12/01 08:14:06;;;;;;;;;;;10.10;99.90;;;;;;5094926;28;20284;-78
2021/12/01 08:16:33;;;;;;;;;;;10.00;99.90;;;;;;5076755;28;19915;-78
2021/12/01 08:18:58;;;;;;;;;;;10.10;99.90;;;;;;5094854;28;19908;-78
2021/12/01 08:21:24;;;;;;;;;;;10.20;99.90;;;;;;5076650;28;20261;-78
2021/12/01 08:23:53;;;;;;;;;;;10.40;99.90;;;;;;5076612;28;19909;-78
2021/12/01 08:26:22;;;;;;;;;;;10.70;99.90;;;;;;5095001;28;19908;-78
2021/12/01 08:28:48;;;;;;;;;;;11.20;99.90;;;;;;5075552;28;19918;-79
2021/12/01 08:31:14;;;;;;;;;;;11.50;99.90;;;;;;5094838;28;20382;-78
2021/12/01 08:33:42;;;;;;;;;;;11.60;99.90;;;;;;5094828;28;19918;-78
2021/12/01 08:36:09;;;;;;;;;;;11.70;99.90;;;;;;5094663;28;19919;-78
2021/12/01 08:38:36;;;;;;;;;;;11.80;99.90;;;;;;5076402;28;19912;-78
2021/12/01 08:41:01;;;;;;;;;;;12.20;99.90;;;;;;5094415;28;20371;-78
2021/12/01 08:43:27;;;;;;;;;;;12.40;99.90;;;;;;5076207;28;19995;-79
2021/12/01 08:45:53;;;;;;;;;;;13.00;99.90;;;;;;5094435;28;19953;-79
2021/12/01 08:48:19;;;;;;;;;;;13.50;99.90;;;;;;5094904;28;19908;-79
2021/12/01 08:50:45;;;;;;;;;;;13.90;99.90;;;;;;5094309;28;20376;-78
2021/12/01 08:53:11;;;;;;;;;;;14.10;99.90;;;;;;5094246;28;19973;-78
2021/12/01 08:55:40;;;;;;;;;;;14.20;99.90;;;;;;5094194;28;19912;-78
2021/12/01 08:58:19;;;;;;;;;;;14.40;99.90;;;;;;5094170;28;19908;-78
2021/12/01 09:00:46;;;;;;;;;;;14.70;99.80;;;;;;5075680;28;19963;-78
2021/12/01 09:03:12;;;;;;;;;;;15.40;99.00;;;;;;5075927;28;19909;-78
2021/12/01 09:05:38;;;;;;;;;;;15.40;97.50;;;;;;5093966;28;19938;-79
2021/12/01 09:08:04;;;;;;;;;;;15.40;96.50;;;;;;5093541;28;20368;-78
2021/12/01 09:10:32;;;;;;;;;;;15.40;96.50;;;;;;5093808;28;20015;-79
2021/12/01 09:12:58;;;;;;;;;;;16.00;95.70;;;;;;5094210;28;19919;-79
2021/12/01 09:15:24;;;;;;;;;;;16.50;94.40;;;;;;5093936;28;20296;-78
2021/12/01 09:17:50;;;;;;;;;;;16.00;95.50;;;;;;5093942;28;19991;-79
2021/12/01 09:20:15;;;;;;;;;;;16.10;94.60;;;;;;5093890;28;19938;-79
2021/12/01 09:22:41;;;;;;;;;;;16.50;94.70;;;;;;5093833;28;19955;-78
2021/12/01 09:25:07;;;;;;;;;;;16.80;94.10;;;;;;5093943;28;19915;-79
2021/12/01 09:27:33;;;;;;;;;;;17.30;93.20;;;;;;5093912;28;19931;-78
2021/12/01 09:29:59;;;;;;;;;;;17.60;91.30;;;;;;5093735;28;19915;-79
2021/12/01 09:32:25;;;;;;;;;;;17.80;90.90;;;;;;5094051;28;20393;-79
2021/12/01 09:34:50;;;;;;;;;;;18.40;87.60;;;;;;5093973;28;20443;-79
2021/12/01 09:37:16;;;;;;;;;;;17.90;86.40;;;;;;5093697;28;19969;-78
2021/12/01 09:39:43;;;;;;;;;;;17.50;89.20;;;;;;5094204;28;20297;-79
2021/12/01 09:42:10;;;;;;;;;;;18.20;86.50;;;;;;5097764;28;19919;-79
2021/12/01 09:44:37;;;;;;;;;;;18.40;84.00;;;;;;5098067;28;19909;-78
2021/12/01 09:47:03;;;;;;;;;;;18.40;83.40;;;;;;5097805;28;19915;-79
2021/12/01 09:49:29;;;;;;;;;;;18.10;84.50;;;;;;5079547;28;19915;-79
2021/12/01 09:51:55;;;;;;;;;;;18.80;81.70;;;;;;5097725;28;20003;-79
2021/12/01 09:54:21;;;;;;;;;;;18.60;82.00;;;;;;5097905;28;19998;-79
2021/12/01 09:56:46;;;;;;;;;;;19.50;80.40;;;;;;5097613;28;19908;-79
2021/12/01 09:59:12;;;;;;;;;;;19.40;78.30;;;;;;5097697;28;19908;-78
2021/12/01 10:01:41;;;;;;;;;;;20.30;77.10;;;;;;5097652;28;20011;-79
2021/12/01 10:04:06;;;;;;;;;;;20.50;73.00;;;;;;5079244;28;19912;-78
2021/12/01 10:06:33;;;;;;;;;;;20.40;73.70;;;;;;5097438;28;19914;-79
2021/12/01 10:09:05;;;;;;;;;;;20.60;72.60;;;;;;5097561;28;19909;-79
2021/12/01 10:11:32;;;;;;;;;;;19.80;72.40;;;;;;5097136;28;20288;-79
2021/12/01 10:14:02;;;;;;;;;;;20.40;70.50;;;;;;5097312;28;19957;-79
2021/12/01 10:16:29;;;;;;;;;;;19.90;69.70;;;;;;5097244;28;19965;-79
2021/12/01 10:18:56;;;;;;;;;;;21.10;69.30;;;;;;5078985;28;20003;-79
2021/12/01 10:21:31;;;;;;;;;;;21.60;67.40;;;;;;5097308;28;20279;-79
2021/12/01 10:24:00;;;;;;;;;;;22.00;64.70;;;;;;5097127;28;19958;-79
2021/12/01 10:26:31;;;;;;;;;;;22.50;63.00;;;;;;5097023;28;19908;-79
2021/12/01 10:29:00;;;;;;;;;;;23.30;61.20;;;;;;5097033;28;19908;-79
2021/12/01 10:31:34;;;;;;;;;;;23.70;58.90;;;;;;5096969;28;20380;-79
2021/12/01 10:34:15;;;;;;;;;;;24.20;57.00;;;;;;5096975;28;19915;-79
2021/12/01 10:36:40;;;;;;;;;;;24.80;56.20;;;;;;5097135;28;19908;-79
2021/12/01 10:39:06;;;;;;;;;;;24.90;54.90;;;;;;5096765;28;19998;-79
2021/12/01 10:41:36;;;;;;;;;;;24.60;53.80;;;;;;5096790;28;19909;-79
2021/12/01 10:44:15;;;;;;;;;;;21.90;57.00;;;;;;5096726;28;19987;-78
2021/12/01 10:46:48;;;;;;;;;;;20.00;61.70;;;;;;5096857;28;19936;-79
2021/12/01 10:49:14;;;;;;;;;;;19.50;64.20;;;;;;5096620;28;20288;-79
2021/12/01 10:51:41;;;;;;;;;;;20.10;62.60;;;;;;5095406;28;19908;-79
2021/12/01 10:54:18;;;;;;;;;;;21.80;58.10;;;;;;5096683;28;20381;-79
2021/12/01 10:56:45;;;;;;;;;;;23.70;55.20;;;;;;5096611;28;19909;-79
2021/12/01 10:59:15;;;;;;;;;;;23.10;55.70;;;;;;5097047;28;19914;-78
2021/12/01 11:01:40;;;;;;;;;;;23.30;55.00;;;;;;5096322;28;19908;-79
2021/12/01 11:04:06;;;;;;;;;;;24.20;53.90;;;;;;5078184;28;19992;-79
2021/12/01 11:06:37;;;;;;;;;;;25.40;53.30;;;;;;5096267;28;20352;-79
2021/12/01 11:09:03;;;;;;;;;;;25.60;51.00;;;;;;5077845;28;19962;-80
2021/12/01 11:11:43;;;;;;;;;;;26.20;51.10;;;;;;5095900;28;19920;-78
2021/12/01 11:14:10;;;;;;;;;;;24.90;50.30;;;;;;5078011;28;19908;-79
2021/12/01 11:16:37;;;;;;;;;;;24.90;50.90;;;;;;5096089;28;19934;-79
2021/12/01 11:19:02;;;;;;;;;;;25.40;51.60;;;;;;5096087;28;19954;-79
2021/12/01 11:21:28;;;;;;;;;;;25.60;50.70;;;;;;5095941;28;19908;-79
2021/12/01 11:23:55;;;;;;;;;;;22.90;54.50;;;;;;5077646;28;19919;-79
2021/12/01 11:26:22;;;;;;;;;;;20.50;59.10;;;;;;5096107;28;19912;-79
2021/12/01 11:28:49;;;;;;;;;;;19.40;63.00;;;;;;5095866;28;19912;-78
2021/12/01 11:31:20;;;;;;;;;;;22.10;59.50;;;;;;5095751;28;20391;-79
2021/12/01 11:33:46;;;;;;;;;;;20.80;58.10;;;;;;5095863;28;19953;-78
2021/12/01 11:36:14;;;;;;;;;;;18.80;63.10;;;;;;5095708;28;20391;-79
2021/12/01 11:38:39;;;;;;;;;;;17.80;65.70;;;;;;5077272;28;19908;-79
2021/12/01 11:41:06;;;;;;;;;;;16.90;69.70;;;;;;5095618;28;20053;-78
2021/12/01 11:43:33;;;;;;;;;;;16.10;72.20;;;;;;5095832;28;20006;-77
2021/12/01 11:45:59;;;;;;;;;;;15.80;73.50;;;;;;5095690;28;19914;-79
2021/12/01 11:48:32;;;;;;;;;;;19.50;67.60;;;;;;5077317;28;20287;-79
2021/12/01 11:51:10;;;;;;;;;;;22.60;60.30;;;;;;5077334;28;19911;-79
2021/12/01 11:53:38;;;;;;;;;;;20.80;58.70;;;;;;5095375;28;19915;-79
2021/12/01 11:56:08;;;;;;;;;;;19.30;62.90;;;;;;5077199;28;19951;-79
2021/12/01 11:58:44;;;;;;;;;;;19.20;65.70;;;;;;5095086;28;19908;-78
2021/12/01 12:01:22;;;;;;;;;;;21.10;62.50;;;;;;5077002;28;20383;-78
2021/12/01 12:03:53;;;;;;;;;;;19.80;59.20;;;;;;5094925;28;19977;-78
2021/12/01 12:06:20;;;;;;;;;;;19.40;63.10;;;;;;5095111;28;20287;-79
2021/12/01 12:08:54;;;;;;;;;;;18.60;65.40;;;;;;5095297;28;20284;-78
2021/12/01 12:11:39;;;;;;;;;;;16.90;68.90;;;;;;5094907;28;19927;-79
2021/12/01 12:14:09;;;;;;;;;;;18.10;68.60;;;;;;5076823;28;19962;-78
2021/12/01 12:16:35;;;;;;;;;;;19.70;63.00;;;;;;5095787;28;19908;-79
2021/12/01 12:19:01;;;;;;;;;;;21.50;61.60;;;;;;5095194;28;19914;-78
2021/12/01 12:24:05;;;;;;;;;;;24.30;55.10;;;;;;5094502;28;19913;-78
2021/12/01 12:26:32;;;;;;;;;;;25.20;52.90;;;;;;5094762;28;19915;-79
2021/12/01 12:29:22;;;;;;;;;;;26.00;51.60;;;;;;5076519;28;19919;-80
2021/12/01 12:31:49;;;;;;;;;;;25.10;50.20;;;;;;5064438;28;19919;-78
2021/12/01 12:34:21;;;;;;;;;;;25.90;50.70;;;;;;5076338;28;19915;-79
2021/12/01 12:36:49;;;;;;;;;;;26.40;49.60;;;;;;5094566;28;19958;-80
2021/12/01 12:39:16;;;;;;;;;;;26.60;49.30;;;;;;5094574;28;19912;-80
2021/12/01 12:41:54;;;;;;;;;;;24.90;50.20;;;;;;5094357;28;19995;-79
2021/12/01 12:44:28;;;;;;;;;;;25.00;50.50;;;;;;5094675;28;20007;-79
2021/12/01 12:47:10;;;;;;;;;;;22.00;54.50;;;;;;5094403;28;19907;-79
2021/12/01 12:49:38;;;;;;;;;;;22.10;56.40;;;;;;5094347;28;19915;-79
2021/12/01 12:52:24;;;;;;;;;;;22.40;56.10;;;;;;5094322;28;19908;-78
2021/12/01 12:54:54;;;;;;;;;;;20.50;56.70;;;;;;5076624;28;19908;-79
2021/12/01 12:57:24;;;;;;;;;;;18.70;60.40;;;;;;5094220;28;19916;-78
2021/12/01 12:59:49;;;;;;;;;;;17.50;63.80;;;;;;5094187;28;19908;-78
2021/12/01 13:02:16;;;;;;;;;;;17.10;66.00;;;;;;5094282;28;19912;-78
2021/12/01 13:07:31;;;;;;;;;;;15.40;72.80;;;;;;5094358;28;19908;-78
2021/12/01 13:10:10;;;;;;;;;;;14.70;75.60;;;;;;5075674;28;19916;-78
2021/12/01 13:12:45;;;;;;;;;;;14.70;78.80;;;;;;5075824;28;19912;-78
2021/12/01 13:15:18;;;;;;;;;;;16.60;77.50;;;;;;5075275;28;19908;-79
2021/12/01 13:17:51;;;;;;;;;;;19.60;66.70;;;;;;5093935;28;20007;-78
2021/12/01 13:20:18;;;;;;;;;;;21.90;61.80;;;;;;5093874;28;20281;-79
2021/12/01 13:22:59;;;;;;;;;;;22.00;59.40;;;;;;5093986;28;19919;-78
2021/12/01 13:25:24;;;;;;;;;;;20.90;59.70;;;;;;5093954;28;20391;-78
2021/12/01 13:27:50;;;;;;;;;;;20.10;63.30;;;;;;5093972;28;19908;-79
2021/12/01 13:30:15;;;;;;;;;;;18.50;66.20;;;;;;5093813;28;20353;-79
2021/12/01 13:32:41;;;;;;;;;;;17.30;71.00;;;;;;5093737;28;19908;-78
2021/12/01 13:35:07;;;;;;;;;;;15.90;77.70;;;;;;5093780;28;19908;-78
2021/12/01 13:37:32;;;;;;;;;;;15.20;80.10;;;;;;5093723;28;19908;-78
2021/12/01 13:39:58;;;;;;;;;;;14.90;81.50;;;;;;5093631;28;19912;-77
2021/12/01 13:42:24;;;;;;;;;;;15.00;82.60;;;;;;5093628;28;19916;-78
2021/12/01 13:44:50;;;;;;;;;;;15.30;81.80;;;;;;5094222;28;19913;-78
2021/12/01 13:47:17;;;;;;;;;;;15.30;80.00;;;;;;5093642;28;19930;-78
2021/12/01 13:49:50;;;;;;;;;;;15.40;80.40;;;;;;5093594;28;19914;-78
2021/12/01 13:52:29;;;;;;;;;;;15.50;78.80;;;;;;5093943;28;19909;-77
2021/12/01 13:55:09;;;;;;;;;;;15.40;78.70;;;;;;5093755;28;19908;-79
2021/12/01 13:57:35;;;;;;;;;;;15.30;79.40;;;;;;5058252;28;19931;-79
2021/12/01 14:00:01;;;;;;;;;;;15.30;80.70;;;;;;5093426;28;20360;-79
2021/12/01 14:02:28;;;;;;;;;;;15.20;80.30;;;;;;5093490;28;20287;-78
2021/12/01 14:04:55;;;;;;;;;;;14.80;81.80;;;;;;5093408;28;19990;-79
2021/12/01 14:07:22;;;;;;;;;;;14.20;84.30;;;;;;5093481;28;19957;-78
2021/12/01 14:09:56;;;;;;;;;;;13.80;85.10;;;;;;5093272;28;19980;-77
2021/12/01 14:12:23;;;;;;;;;;;13.30;87.50;;;;;;5093410;28;19969;-78
2021/12/01 14:14:49;;;;;;;;;;;13.00;90.50;;;;;;5093503;28;19908;-78
2021/12/01 14:17:15;;;;;;;;;;;13.10;91.40;;;;;;5093456;28;19913;-78
2021/12/01 14:19:41;;;;;;;;;;;13.20;91.20;;;;;;5093370;28;19946;-78
2021/12/01 14:22:13;;;;;;;;;;;13.30;91.20;;;;;;5093333;28;20436;-78
2021/12/01 14:24:49;;;;;;;;;;;13.90;90.00;;;;;;5093268;28;19915;-78
2021/12/01 14:27:15;;;;;;;;;;;13.80;89.80;;;;;;5096558;28;19908;-78
2021/12/01 14:29:40;;;;;;;;;;;13.40;90.00;;;;;;5097259;28;19908;-79
2021/12/01 14:32:08;;;;;;;;;;;15.40;88.30;;;;;;5096976;28;20368;-79
2021/12/01 14:34:38;;;;;;;;;;;16.30;82.30;;;;;;5078777;28;19908;-79
2021/12/01 14:37:06;;;;;;;;;;;17.30;78.80;;;;;;5097063;28;19909;-79